Terminal Aerodrome Forecast
Issued by NWS

Home | Current Version | Previous Version | Text Only | Print | Product List | Glossary On
Versions: 1 2 3 4 5 6 7 8 9 10 11 12 13
000
FTUS42 KMLB 231100
TAFISM
TAF
KISM 231137Z 2312/2412 29005KT P6SM SCT015
      TEMPO 2312/2313 5SM BR BKN015
     FM231800 27006KT P6SM SCT050=

USA.gov is the U.S. government's official web portal to all federal, state and local government web resources and services.